Time;durP1;ratioP1;P1;durP2;ratioP2;P2;SDS_P1;SDS_P2;PMS_P1;PMS_P2;Temp;Humidity;BMP_temperature;BMP_pressure;BME280_temperature;BME280_humidity;BME280_pressure;Samples;Min_cycle;Max_cycle;Signal;HPM_P1;HPM_P2
2023/03/12 00:00:39;;;;;;;5.27;1.90;;;;;;;6.30;91.68;100661.78;2072414;28;20275;-59
2023/03/12 00:01:40;;;;;;;5.57;1.95;;;;;;;6.35;91.75;100650.34;2071359;28;20193;-59
2023/03/12 00:02:40;;;;;;;5.37;2.40;;;;;;;6.34;91.54;100653.50;2076112;28;20185;-59
2023/03/12 00:03:41;;;;;;;8.70;1.93;;;;;;;6.32;91.42;100656.69;2083238;28;20238;-59
2023/03/12 00:04:41;;;;;;;5.80;2.00;;;;;;;6.38;90.54;100663.31;2087018;28;20183;-59
2023/03/12 00:05:42;;;;;;;9.93;2.63;;;;;;;5.74;89.65;100579.53;2080334;28;20179;-59
2023/03/12 00:06:43;;;;;;;6.90;1.92;;;;;;;6.29;88.68;100670.44;2080224;28;20191;-59
2023/03/12 00:07:43;;;;;;;6.63;2.30;;;;;;;6.17;87.27;100660.69;2072938;28;20212;-59
2023/03/12 00:08:44;;;;;;;5.93;2.00;;;;;;;6.27;86.89;100670.88;2078804;28;20203;-59
2023/03/12 00:09:44;;;;;;;5.47;2.20;;;;;;;6.09;86.88;100672.91;2076439;28;20276;-59
2023/03/12 00:10:45;;;;;;;4.13;1.90;;;;;;;6.09;87.37;100675.66;2084662;28;20270;-59
2023/03/12 00:11:45;;;;;;;7.67;2.20;;;;;;;5.38;88.67;100571.88;2077302;28;20267;-60
2023/03/12 00:12:46;;;;;;;4.83;2.17;;;;;;;6.10;88.25;100671.72;2075809;28;20190;-59
2023/03/12 00:13:54;;;;;;;6.13;2.13;;;;;;;6.07;89.48;100666.25;2087967;28;20265;-59
2023/03/12 00:14:54;;;;;;;9.38;2.22;;;;;;;6.04;89.33;100650.53;2080206;28;20202;-60
2023/03/12 00:15:55;;;;;;;6.77;2.37;;;;;;;6.12;89.98;100665.81;2080605;28;20188;-59
2023/03/12 00:16:55;;;;;;;6.07;2.20;;;;;;;5.27;89.71;100527.94;2072455;28;20588;-59
2023/03/12 00:17:56;;;;;;;10.50;2.10;;;;;;;6.11;90.36;100654.03;2078711;28;20192;-59
2023/03/12 00:18:56;;;;;;;8.03;2.10;;;;;;;6.27;89.24;100676.38;2075259;28;20204;-59
2023/03/12 00:19:57;;;;;;;7.73;2.10;;;;;;;5.71;90.25;100591.34;2080487;28;20208;-59
2023/03/12 00:20:57;;;;;;;11.97;2.43;;;;;;;6.12;90.15;100663.88;2085323;28;20578;-59
2023/03/12 00:21:57;;;;;;;6.63;2.00;;;;;;;6.26;90.53;100671.25;2080463;28;20215;-58
2023/03/12 00:22:58;;;;;;;6.13;2.07;;;;;;;6.13;89.83;100654.41;2079947;28;20318;-59
2023/03/12 00:23:58;;;;;;;9.53;2.50;;;;;;;5.73;89.76;100597.22;2072501;28;21029;-59
2023/03/12 00:24:59;;;;;;;15.80;2.50;;;;;;;6.20;89.51;100670.13;2072452;28;20210;-59
2023/03/12 00:26:01;;;;;;;6.90;2.30;;;;;;;6.27;90.56;100679.13;2078366;28;20260;-59
2023/03/12 00:27:02;;;;;;;5.25;2.00;;;;;;;6.32;90.45;100673.19;2079905;28;20252;-58
2023/03/12 00:28:02;;;;;;;5.53;1.90;;;;;;;6.29;90.17;100678.69;2081400;28;20239;-58
2023/03/12 00:29:02;;;;;;;3.97;2.17;;;;;;;6.29;90.98;100673.19;2081978;28;20196;-59
2023/03/12 00:30:04;;;;;;;8.57;2.40;;;;;;;5.29;91.34;100544.78;2082065;28;20277;-59
2023/03/12 00:31:17;;;;;;;7.40;2.60;;;;;;;6.24;91.59;100681.88;2081340;28;20226;-59
2023/03/12 00:32:18;;;;;;;7.07;2.10;;;;;;;6.25;91.61;100686.22;2082001;28;20192;-59
2023/03/12 00:33:18;;;;;;;7.75;2.47;;;;;;;6.16;92.75;100688.59;2081987;28;20665;-59
2023/03/12 00:34:19;;;;;;;6.30;2.70;;;;;;;6.15;93.46;100685.06;2082160;28;20558;-58
2023/03/12 00:35:19;;;;;;;5.83;2.20;;;;;;;6.19;94.41;100685.84;2074751;28;20518;-59
2023/03/12 00:36:23;;;;;;;7.27;2.40;;;;;;;6.19;94.35;100691.34;2079982;28;20210;-59
2023/03/12 00:37:24;;;;;;;8.55;2.50;;;;;;;6.16;94.90;100680.34;2076161;28;20208;-59
2023/03/12 00:38:24;;;;;;;8.70;2.60;;;;;;;6.17;95.10;100676.41;2078182;28;20259;-59
2023/03/12 00:39:25;;;;;;;8.10;2.43;;;;;;;6.10;95.74;100676.47;2078960;28;20221;-59
2023/03/12 00:40:25;;;;;;;6.93;2.37;;;;;;;6.01;95.69;100676.09;2074747;28;20267;-59
2023/03/12 00:41:27;;;;;;;8.00;2.50;;;;;;;5.95;97.08;100675.72;2081533;28;20237;-59
2023/03/12 00:42:27;;;;;;;6.00;2.42;;;;;;;5.93;96.96;100675.34;2082121;28;20188;-59
2023/03/12 00:43:28;;;;;;;9.00;2.60;;;;;;;5.81;97.49;100640.06;2082039;28;20211;-58
2023/03/12 00:44:28;;;;;;;8.67;2.60;;;;;;;5.94;98.11;100674.16;2082050;28;20188;-59
2023/03/12 00:45:29;;;;;;;6.93;2.40;;;;;;;5.90;98.13;100662.38;2081964;28;20196;-59
2023/03/12 00:46:29;;;;;;;6.63;2.67;;;;;;;5.80;98.86;100676.97;2082031;28;20819;-59
2023/03/12 00:47:30;;;;;;;10.47;2.63;;;;;;;5.84;99.20;100671.47;2080883;28;20196;-58
2023/03/12 00:48:31;;;;;;;8.27;2.47;;;;;;;5.90;99.53;100678.13;2081120;28;20178;-59
2023/03/12 00:49:31;;;;;;;5.63;2.30;;;;;;;5.94;99.44;100676.16;2081983;28;20213;-59
2023/03/12 00:50:31;;;;;;;6.27;2.60;;;;;;;5.92;99.83;100675.75;2081824;28;20183;-59
2023/03/12 00:51:32;;;;;;;8.50;2.67;;;;;;;5.87;100.00;100682.44;2081799;28;20194;-59
2023/03/12 00:52:32;;;;;;;8.37;3.10;;;;;;;5.58;100.00;100638.91;2081863;28;20674;-59
2023/03/12 00:53:33;;;;;;;5.73;2.70;;;;;;;5.68;100.00;100655.38;2082078;28;20199;-58
2023/03/12 00:54:33;;;;;;;8.20;2.87;;;;;;;5.67;100.00;100650.28;2081640;28;20257;-59
2023/03/12 00:55:34;;;;;;;8.53;2.70;;;;;;;5.80;100.00;100682.47;2081851;28;20283;-60
2023/03/12 00:56:34;;;;;;;9.37;3.00;;;;;;;5.64;100.00;100648.34;2081839;28;20204;-59
2023/03/12 00:57:35;;;;;;;8.03;2.80;;;;;;;5.84;100.00;100671.47;2081301;28;20175;-59
2023/03/12 00:58:35;;;;;;;7.63;2.80;;;;;;;5.82;100.00;100671.06;2081746;28;20664;-59
2023/03/12 00:59:39;;;;;;;6.83;3.10;;;;;;;5.81;100.00;100669.50;2082254;28;20171;-59
2023/03/12 01:00:39;;;;;;;7.28;2.75;;;;;;;5.72;100.00;100661.66;2082023;28;20196;-59
2023/03/12 01:01:40;;;;;;;9.33;2.90;;;;;;;5.89;100.00;100682.81;2081474;28;20282;-59
2023/03/12 01:02:41;;;;;;;6.78;2.80;;;;;;;5.89;100.00;100690.31;2081884;28;20796;-59
2023/03/12 01:03:41;;;;;;;7.87;3.30;;;;;;;5.86;100.00;100683.63;2077507;28;20200;-59
2023/03/12 01:04:42;;;;;;;5.97;2.60;;;;;;;5.92;100.00;100695.00;2076786;28;20187;-59
2023/03/12 01:05:42;;;;;;;6.37;2.80;;;;;;;5.87;100.00;100695.41;2081839;28;20211;-59
2023/03/12 01:06:43;;;;;;;6.60;2.63;;;;;;;5.88;100.00;100708.75;2080359;28;20215;-59
2023/03/12 01:07:43;;;;;;;3.93;2.50;;;;;;;5.89;100.00;100699.31;2073830;28;20176;-59
2023/03/12 01:08:44;;;;;;;6.40;2.93;;;;;;;5.94;100.00;100698.16;2073502;28;20772;-59
2023/03/12 01:09:44;;;;;;;6.40;2.60;;;;;;;5.91;100.00;100693.44;2081024;28;20257;-59
2023/03/12 01:10:45;;;;;;;5.33;2.70;;;;;;;5.88;100.00;100685.97;2084107;28;20317;-59
2023/03/12 01:11:45;;;;;;;5.40;3.30;;;;;;;5.93;100.00;100691.84;2081461;28;20222;-59
2023/03/12 01:12:46;;;;;;;5.70;2.87;;;;;;;5.91;100.00;100702.47;2078321;28;20194;-59
2023/03/12 01:13:47;;;;;;;7.53;2.80;;;;;;;5.91;100.00;100701.69;2076049;28;20177;-59
2023/03/12 01:14:47;;;;;;;5.37;3.10;;;;;;;5.09;100.00;100565.69;2080271;28;20184;-59
2023/03/12 01:15:48;;;;;;;4.13;2.90;;;;;;;5.96;100.00;100706.78;2073593;28;20247;-59
2023/03/12 01:16:49;;;;;;;4.83;2.70;;;;;;;5.78;100.00;100695.00;2081372;28;20231;-59
2023/03/12 01:17:50;;;;;;;5.87;2.90;;;;;;;5.57;100.00;100659.34;2074605;28;20227;-59
2023/03/12 01:18:50;;;;;;;6.88;3.10;;;;;;;5.94;100.00;100717.41;2081717;28;20188;-59
2023/03/12 01:19:50;;;;;;;5.37;2.80;;;;;;;5.83;100.00;100709.16;2085119;28;20286;-59
2023/03/12 01:20:51;;;;;;;12.37;3.03;;;;;;;5.93;100.00;100729.56;2077799;28;20195;-59
2023/03/12 01:21:51;;;;;;;7.23;3.10;;;;;;;5.97;100.00;100731.13;2079054;28;20221;-59
2023/03/12 01:22:52;;;;;;;6.23;2.90;;;;;;;5.95;100.00;100722.47;2088381;28;20190;-59
2023/03/12 01:23:53;;;;;;;8.07;3.23;;;;;;;5.99;100.00;100736.22;2081656;28;20676;-59
2023/03/12 01:24:54;;;;;;;5.22;3.08;;;;;;;6.00;100.00;100735.06;2081887;28;20184;-59
2023/03/12 01:25:54;;;;;;;5.83;3.20;;;;;;;5.88;100.00;100713.47;2073929;28;20202;-59
2023/03/12 01:26:55;;;;;;;7.83;3.00;;;;;;;5.74;100.00;100699.75;2079690;28;20266;-59
2023/03/12 01:27:55;;;;;;;7.80;3.20;;;;;;;5.62;99.90;100675.41;2076090;28;20192;-59
2023/03/12 01:28:56;;;;;;;6.17;2.67;;;;;;;6.10;99.56;100739.72;2077793;28;20261;-59
2023/03/12 01:29:56;;;;;;;6.17;3.00;;;;;;;4.99;99.31;100574.72;2078549;28;20192;-59
2023/03/12 01:30:57;;;;;;;6.10;3.00;;;;;;;6.11;99.59;100744.81;2075016;28;20255;-59
2023/03/12 01:31:57;;;;;;;7.27;2.90;;;;;;;6.10;98.56;100751.50;2080745;28;20635;-59
2023/03/12 01:32:58;;;;;;;7.50;3.13;;;;;;;6.10;97.16;100753.50;2073691;28;20195;-59
2023/03/12 01:33:58;;;;;;;5.60;2.80;;;;;;;5.21;97.05;100625.69;2081467;28;20222;-59
2023/03/12 01:34:59;;;;;;;7.30;3.00;;;;;;;6.05;97.02;100762.16;2074875;28;20209;-59
2023/03/12 01:36:00;;;;;;;6.60;3.07;;;;;;;6.11;95.56;100761.31;2084702;28;20218;-59
2023/03/12 01:37:00;;;;;;;10.17;3.00;;;;;;;6.11;95.65;100753.06;2084770;28;20275;-59
2023/03/12 01:38:01;;;;;;;7.07;2.90;;;;;;;6.09;95.00;100752.69;2081756;28;20197;-59
2023/03/12 01:39:01;;;;;;;6.57;2.67;;;;;;;6.10;94.60;100757.00;2080705;28;20650;-59
2023/03/12 01:40:03;;;;;;;6.73;2.80;;;;;;;6.10;94.57;100748.00;2081600;28;20270;-59
2023/03/12 01:41:03;;;;;;;7.35;2.95;;;;;;;6.12;95.06;100749.16;2080990;28;20184;-59
2023/03/12 01:42:04;;;;;;;6.63;2.90;;;;;;;5.31;94.92;100629.56;2081813;28;20177;-58
2023/03/12 01:43:26;;;;;;;6.00;3.00;;;;;;;6.18;95.90;100757.75;2074461;28;20185;-59
2023/03/12 01:44:27;;;;;;;11.00;3.45;;;;;;;6.21;97.56;100765.22;2073470;28;20622;-59
2023/03/12 01:46:05;;;;;;;9.35;2.72;;;;;;;6.18;96.93;100763.28;2081157;28;20188;-59
2023/03/12 01:47:05;;;;;;;5.43;2.70;;;;;;;6.16;99.38;100762.91;2072664;28;20189;-58
2023/03/12 01:48:06;;;;;;;14.10;3.30;;;;;;;6.16;99.19;100766.41;2073228;28;20222;-58
2023/03/12 01:49:13;;;;;;;7.93;2.93;;;;;;;6.16;99.78;100771.91;2073512;28;20195;-59
2023/03/12 01:50:13;;;;;;;8.43;2.97;;;;;;;6.12;99.75;100770.38;2081711;28;20193;-59
2023/03/12 01:51:16;;;;;;;6.43;2.90;;;;;;;6.12;99.45;100767.63;2081112;28;20227;-59
2023/03/12 01:52:30;;;;;;;4.38;2.45;;;;;;;6.02;96.50;100766.47;2074175;28;20185;-59
2023/03/12 01:53:30;;;;;;;4.55;2.80;;;;;;;6.04;94.08;100772.34;2073413;28;20196;-59
2023/03/12 01:54:40;;;;;;;7.60;3.13;;;;;;;6.05;94.34;100782.19;2080029;28;20238;-59
2023/03/12 01:55:41;;;;;;;4.00;2.92;;;;;;;6.04;93.11;100769.59;2074697;28;20722;-59
2023/03/12 01:56:42;;;;;;;11.23;3.97;;;;;;;6.04;93.25;100769.59;2078668;28;20572;-59
2023/03/12 01:57:50;;;;;;;5.90;3.30;;;;;;;6.06;92.87;100775.47;2081469;28;20632;-59
2023/03/12 01:58:54;;;;;;;8.25;3.45;;;;;;;6.10;92.14;100781.00;2076592;28;20246;-59
2023/03/12 02:00:10;;;;;;;5.90;2.60;;;;;;;6.06;90.26;100771.97;2077092;28;20269;-60
2023/03/12 02:01:13;;;;;;;6.70;2.55;;;;;;;6.01;89.76;100767.63;2076044;28;20190;-59
2023/03/12 02:02:15;;;;;;;7.15;2.80;;;;;;;6.02;89.62;100771.19;2077355;28;20493;-59
2023/03/12 02:03:15;;;;;;;10.32;3.08;;;;;;;6.05;90.83;100776.69;2078249;28;20231;-59
2023/03/12 02:04:19;;;;;;;12.80;3.27;;;;;;;6.04;91.46;100777.06;2075337;28;20184;-59
2023/03/12 02:05:42;;;;;;;7.47;3.10;;;;;;;6.04;88.60;100775.09;2080051;28;20187;-59
2023/03/12 02:06:50;;;;;;;5.88;2.53;;;;;;;5.93;88.82;100779.06;2075866;28;20194;-59
2023/03/12 02:07:50;;;;;;;6.82;2.40;;;;;;;5.86;87.72;100765.34;2078220;28;20212;-59
2023/03/12 02:08:52;;;;;;;7.57;2.90;;;;;;;5.71;87.22;100739.81;2075074;28;20188;-59
2023/03/12 02:09:52;;;;;;;4.43;2.17;;;;;;;5.88;87.32;100768.47;2082034;28;20183;-59
2023/03/12 02:10:53;;;;;;;5.73;2.37;;;;;;;5.08;87.44;100662.97;2081139;28;20671;-59
2023/03/12 02:11:53;;;;;;;4.33;2.20;;;;;;;5.85;87.91;100766.53;2081443;28;20203;-59
2023/03/12 02:12:54;;;;;;;5.27;2.57;;;;;;;5.91;88.50;100770.44;2074573;28;20235;-59
2023/03/12 02:13:54;;;;;;;6.37;2.60;;;;;;;5.84;87.41;100767.72;2084225;28;20211;-59
2023/03/12 02:14:55;;;;;;;5.97;2.20;;;;;;;5.46;87.63;100719.06;2084851;28;20215;-60
2023/03/12 02:15:55;;;;;;;5.53;2.83;;;;;;;5.80;87.60;100772.44;2077827;28;20274;-59
2023/03/12 02:16:56;;;;;;;5.20;2.60;;;;;;;5.27;87.96;100698.28;2072678;28;20388;-60
2023/03/12 02:17:57;;;;;;;6.03;2.75;;;;;;;5.76;88.34;100766.91;2074288;28;20187;-59
2023/03/12 02:19:00;;;;;;;7.53;2.50;;;;;;;5.81;88.38;100774.00;2081204;28;20670;-59
2023/03/12 02:20:15;;;;;;;6.03;2.80;;;;;;;5.68;87.81;100779.09;2073324;28;20175;-58
2023/03/12 02:21:22;;;;;;;4.28;2.42;;;;;;;5.65;88.38;100787.34;2072639;28;20175;-59
2023/03/12 02:22:23;;;;;;;7.18;2.40;;;;;;;5.65;89.18;100779.88;2081464;28;20200;-59
2023/03/12 02:23:40;;;;;;;4.78;2.70;;;;;;;5.62;88.81;100783.44;2081379;28;20489;-59
2023/03/12 02:25:02;;;;;;;5.18;2.20;;;;;;;5.62;90.37;100788.13;2073177;28;20186;-59
2023/03/12 02:26:04;;;;;;;6.95;2.30;;;;;;;5.66;90.61;100786.97;2073123;28;20610;-59
2023/03/12 02:27:06;;;;;;;6.97;2.65;;;;;;;5.57;90.35;100786.56;2072320;28;20189;-58
2023/03/12 02:28:11;;;;;;;5.75;2.45;;;;;;;5.53;91.36;100785.03;2073079;28;20191;-59
2023/03/12 02:29:12;;;;;;;4.40;2.53;;;;;;;5.40;91.48;100792.88;2073099;28;20195;-58
2023/03/12 02:30:15;;;;;;;5.18;2.70;;;;;;;5.25;91.58;100774.81;2073173;28;20200;-59
2023/03/12 02:31:20;;;;;;;7.28;2.80;;;;;;;5.29;93.06;100797.56;2079265;28;20665;-59
2023/03/12 02:32:25;;;;;;;6.78;2.47;;;;;;;4.84;93.53;100724.19;2081306;28;20223;-59
2023/03/12 02:33:26;;;;;;;4.70;2.40;;;;;;;5.18;94.11;100793.28;2081336;28;20253;-59
2023/03/12 02:34:27;;;;;;;5.97;2.60;;;;;;;5.20;94.20;100799.16;2076545;28;20260;-60
2023/03/12 02:35:27;;;;;;;3.73;2.37;;;;;;;5.14;95.33;100796.00;2076305;28;20215;-59
2023/03/12 02:36:28;;;;;;;7.03;2.70;;;;;;;4.44;95.55;100694.34;2081110;28;20193;-59
2023/03/12 02:37:28;;;;;;;6.20;2.70;;;;;;;5.13;96.38;100808.16;2080581;28;20182;-59
2023/03/12 02:38:44;;;;;;;4.67;2.40;;;;;;;5.13;97.19;100802.66;2081348;28;20195;-59
2023/03/12 02:39:53;;;;;;;5.70;2.55;;;;;;;5.15;96.64;100810.53;2081060;28;20167;-59
2023/03/12 02:40:57;;;;;;;4.75;2.42;;;;;;;5.09;96.88;100812.09;2080750;28;20538;-59
2023/03/12 02:41:59;;;;;;;6.65;2.78;;;;;;;5.02;97.39;100820.34;2081092;28;20178;-58
2023/03/12 02:43:01;;;;;;;4.07;2.47;;;;;;;5.02;97.98;100815.59;2089374;28;20182;-59
2023/03/12 02:44:21;;;;;;;6.03;2.75;;;;;;;4.97;98.34;100823.47;2073653;28;20278;-59
2023/03/12 02:45:24;;;;;;;5.03;2.75;;;;;;;4.86;98.21;100815.19;2073068;28;20597;-59
2023/03/12 02:46:26;;;;;;;4.25;2.60;;;;;;;4.42;99.06;100770.75;2072392;28;20257;-59
2023/03/12 02:47:26;;;;;;;5.65;2.72;;;;;;;4.80;99.53;100826.94;2086864;28;20571;-59
2023/03/12 02:48:27;;;;;;;5.47;2.83;;;;;;;4.88;99.65;100834.78;2076297;28;20214;-59
2023/03/12 02:49:30;;;;;;;7.90;2.80;;;;;;;4.93;98.85;100841.88;2078085;28;20195;-59
2023/03/12 02:50:31;;;;;;;4.88;2.50;;;;;;;4.91;98.82;100839.53;2079246;28;20195;-59
2023/03/12 02:51:31;;;;;;;6.33;2.60;;;;;;;4.88;98.91;100845.78;2080065;28;20194;-59
2023/03/12 02:52:35;;;;;;;5.03;2.50;;;;;;;4.79;99.08;100845.38;2080869;28;20689;-59
2023/03/12 02:53:35;;;;;;;5.00;2.75;;;;;;;4.79;99.06;100841.84;2081029;28;20248;-60
2023/03/12 02:54:35;;;;;;;7.67;2.70;;;;;;;4.83;98.97;100850.88;2080770;28;20168;-59
2023/03/12 02:55:36;;;;;;;4.93;2.50;;;;;;;4.88;98.97;100845.78;2081051;28;20707;-58
2023/03/12 02:56:37;;;;;;;7.40;2.83;;;;;;;4.90;98.44;100845.41;2080905;28;20257;-59
2023/03/12 02:57:37;;;;;;;6.40;2.63;;;;;;;4.97;97.69;100848.19;2080725;28;20195;-59
2023/03/12 02:58:38;;;;;;;5.23;2.57;;;;;;;4.94;97.38;100852.50;2080705;28;20244;-59
2023/03/12 02:59:38;;;;;;;6.43;2.40;;;;;;;4.05;98.22;100704.41;2077126;28;20282;-59
2023/03/12 03:00:39;;;;;;;5.07;2.80;;;;;;;4.97;98.38;100848.19;2075635;28;20316;-59
2023/03/12 03:01:39;;;;;;;5.80;3.03;;;;;;;4.94;97.88;100843.44;2078950;28;20238;-59
2023/03/12 03:02:41;;;;;;;5.33;2.53;;;;;;;4.95;97.34;100843.06;2073253;28;20267;-59
2023/03/12 03:03:41;;;;;;;4.22;2.42;;;;;;;4.93;97.45;100842.66;2081166;28;20186;-59
2023/03/12 03:04:42;;;;;;;3.77;2.40;;;;;;;4.88;97.76;100834.03;2073093;28;20732;-59
2023/03/12 03:05:42;;;;;;;4.10;2.80;;;;;;;4.92;98.66;100834.81;2079335;28;20223;-59
2023/03/12 03:06:43;;;;;;;5.27;2.60;;;;;;;4.84;97.78;100823.03;2074955;28;20573;-59
2023/03/12 03:07:43;;;;;;;3.78;2.40;;;;;;;4.85;97.99;100826.56;2077095;28;20193;-59
2023/03/12 03:08:44;;;;;;;4.53;2.50;;;;;;;4.77;98.15;100825.75;2077685;28;20285;-59
2023/03/12 03:09:44;;;;;;;8.17;2.57;;;;;;;4.69;98.95;100835.16;2075299;28;20181;-59
2023/03/12 03:10:45;;;;;;;5.83;2.33;;;;;;;4.65;99.74;100834.34;2087946;28;20185;-58
2023/03/12 03:11:45;;;;;;;4.60;2.93;;;;;;;4.69;98.95;100829.66;2072603;28;20214;-59
2023/03/12 03:12:46;;;;;;;6.80;2.90;;;;;;;4.62;99.48;100839.84;2072561;28;20656;-58
2023/03/12 03:13:46;;;;;;;4.70;2.60;;;;;;;4.53;99.75;100818.25;2086627;28;20193;-58
2023/03/12 03:14:47;;;;;;;4.40;2.47;;;;;;;4.51;100.00;100828.81;2083091;28;20190;-59
2023/03/12 03:15:47;;;;;;;4.33;2.70;;;;;;;4.42;100.00;100825.63;2085401;28;20196;-59
2023/03/12 03:16:48;;;;;;;4.70;2.90;;;;;;;4.51;100.00;100845.28;2085067;28;20185;-59
2023/03/12 03:17:48;;;;;;;5.17;2.90;;;;;;;4.00;100.00;100765.09;2080831;28;20175;-58
2023/03/12 03:18:49;;;;;;;6.00;2.90;;;;;;;4.61;100.00;100863.75;2079654;28;20185;-58
2023/03/12 03:19:51;;;;;;;5.00;2.45;;;;;;;4.55;100.00;100864.50;2072812;28;20232;-59
2023/03/12 03:21:03;;;;;;;8.20;2.80;;;;;;;4.47;100.00;100869.16;2088998;28;20182;-58
2023/03/12 03:22:04;;;;;;;4.53;2.60;;;;;;;4.48;100.00;100876.25;2077328;28;20185;-59
2023/03/12 03:23:04;;;;;;;5.83;2.90;;;;;;;4.50;100.00;100871.16;2080853;28;20191;-59
2023/03/12 03:24:05;;;;;;;4.87;2.43;;;;;;;4.59;100.00;100879.03;2074197;28;20186;-59
2023/03/12 03:25:09;;;;;;;4.78;2.67;;;;;;;4.73;100.00;100888.09;2083407;28;20648;-59
2023/03/12 03:26:09;;;;;;;4.88;2.83;;;;;;;4.67;100.00;100897.09;2084044;28;20212;-59
2023/03/12 03:27:10;;;;;;;5.37;2.60;;;;;;;4.62;100.00;100890.00;2083869;28;20653;-60
2023/03/12 03:28:10;;;;;;;4.80;2.57;;;;;;;4.68;100.00;100899.47;2086285;28;20184;-59
2023/03/12 03:29:11;;;;;;;5.80;3.00;;;;;;;4.23;99.85;100828.69;2080648;28;20224;-59
2023/03/12 03:30:11;;;;;;;6.00;2.80;;;;;;;4.81;99.63;100910.88;2080829;28;20570;-59
2023/03/12 03:31:12;;;;;;;4.63;2.70;;;;;;;4.94;98.82;100909.34;2080578;28;20515;-59
2023/03/12 03:32:12;;;;;;;5.83;3.07;;;;;;;4.99;98.27;100912.53;2080921;28;20743;-59
2023/03/12 03:33:13;;;;;;;5.93;2.70;;;;;;;4.84;97.85;100879.91;2080559;28;20206;-59
2023/03/12 03:34:14;;;;;;;5.13;2.60;;;;;;;5.06;97.07;100906.25;2075700;28;20194;-59
2023/03/12 03:35:14;;;;;;;4.80;2.77;;;;;;;5.08;96.84;100909.41;2072395;28;20245;-58
2023/03/12 03:36:16;;;;;;;5.87;2.60;;;;;;;4.26;96.30;100784.00;2075451;28;20211;-59
2023/03/12 03:37:16;;;;;;;8.98;2.55;;;;;;;5.13;95.87;100917.28;2080085;28;20186;-59
2023/03/12 03:38:16;;;;;;;4.90;3.00;;;;;;;5.14;96.19;100902.34;2080076;28;20269;-59
2023/03/12 03:39:17;;;;;;;4.70;2.43;;;;;;;5.18;95.92;100903.94;2072618;28;20590;-58
2023/03/12 03:40:18;;;;;;;4.83;2.37;;;;;;;5.18;95.67;100903.16;2072651;28;20194;-59
2023/03/12 03:41:19;;;;;;;4.90;2.63;;;;;;;5.25;95.44;100898.47;2072198;28;20228;-59
2023/03/12 03:42:20;;;;;;;5.53;2.60;;;;;;;5.29;95.43;100906.72;2072594;28;20195;-58
2023/03/12 03:43:21;;;;;;;4.83;2.50;;;;;;;4.32;95.56;100744.06;2077020;28;20193;-59
2023/03/12 03:44:22;;;;;;;3.72;2.67;;;;;;;5.39;96.27;100903.19;2077248;28;20228;-59
2023/03/12 03:45:23;;;;;;;5.50;2.58;;;;;;;5.41;94.78;100896.13;2074751;28;20726;-59
2023/03/12 03:46:24;;;;;;;6.27;2.93;;;;;;;5.38;94.81;100902.41;2079224;28;20613;-59
2023/03/12 03:47:25;;;;;;;4.57;2.50;;;;;;;5.32;94.31;100894.94;2072080;28;20187;-60
2023/03/12 03:48:25;;;;;;;4.23;2.60;;;;;;;4.73;93.88;100813.97;2080644;28;20655;-59
2023/03/12 03:49:25;;;;;;;4.90;2.57;;;;;;;5.18;94.35;100898.44;2073549;28;20222;-59
2023/03/12 03:50:26;;;;;;;3.93;2.80;;;;;;;5.12;94.12;100888.25;2078593;28;20224;-59
2023/03/12 03:51:26;;;;;;;5.80;2.80;;;;;;;5.07;95.02;100894.88;2085370;28;20220;-59
2023/03/12 03:52:27;;;;;;;5.40;2.80;;;;;;;5.01;94.84;100890.94;2084831;28;20195;-59
2023/03/12 03:53:28;;;;;;;5.93;2.87;;;;;;;4.87;95.35;100895.63;2083294;28;20204;-59
2023/03/12 03:54:29;;;;;;;8.87;3.07;;;;;;;4.92;96.21;100900.72;2087048;28;20182;-59
2023/03/12 03:55:30;;;;;;;6.95;2.90;;;;;;;4.91;96.49;100896.38;2081132;28;20190;-59
2023/03/12 03:56:30;;;;;;;7.43;3.03;;;;;;;4.97;96.58;100895.63;2089075;28;20205;-59
2023/03/12 03:57:31;;;;;;;6.57;2.67;;;;;;;4.41;97.25;100818.56;2080668;28;20186;-59
2023/03/12 03:58:32;;;;;;;5.37;2.60;;;;;;;4.96;97.03;100907.00;2086944;28;20246;-59
2023/03/12 03:59:32;;;;;;;4.37;2.50;;;;;;;4.92;96.73;100898.75;2083233;28;20687;-58
2023/03/12 04:00:33;;;;;;;2.90;2.47;;;;;;;4.97;96.74;100914.84;2076270;28;20190;-59
2023/03/12 04:01:33;;;;;;;3.93;2.70;;;;;;;4.96;96.30;100915.25;2074888;28;20278;-59
2023/03/12 04:02:34;;;;;;;7.40;3.00;;;;;;;5.02;96.37;100911.75;2078511;28;20175;-58
2023/03/12 04:03:35;;;;;;;6.17;3.03;;;;;;;5.03;95.64;100915.28;2072269;28;20182;-59
2023/03/12 04:04:35;;;;;;;4.47;2.70;;;;;;;5.00;96.82;100916.03;2072599;28;20653;-59
2023/03/12 04:05:36;;;;;;;5.67;2.87;;;;;;;4.99;96.61;100918.03;2080334;28;20171;-59
2023/03/12 04:06:36;;;;;;;5.83;2.47;;;;;;;4.99;96.61;100917.22;2080463;28;20575;-59
2023/03/12 04:07:37;;;;;;;5.07;2.80;;;;;;;4.94;96.48;100923.88;2074569;28;20181;-59
2023/03/12 04:08:37;;;;;;;4.80;3.00;;;;;;;5.00;96.14;100922.34;2072337;28;20210;-58
2023/03/12 04:09:38;;;;;;;5.63;2.67;;;;;;;5.03;96.43;100932.53;2075850;28;20653;-59
2023/03/12 04:10:38;;;;;;;4.50;2.90;;;;;;;5.04;96.80;100934.13;2086022;28;20557;-59
2023/03/12 04:11:39;;;;;;;6.80;2.70;;;;;;;5.10;95.96;100929.03;2079110;28;20222;-58
2023/03/12 04:12:39;;;;;;;6.97;3.23;;;;;;;5.08;96.23;100929.41;2072206;28;20194;-59
2023/03/12 04:13:41;;;;;;;4.00;2.60;;;;;;;4.68;95.68;100868.47;2072578;28;20181;-58
2023/03/12 04:14:42;;;;;;;5.95;2.97;;;;;;;4.45;96.52;100830.34;2079336;28;20645;-59
2023/03/12 04:15:50;;;;;;;4.45;2.72;;;;;;;4.96;95.63;100921.53;2080477;28;20193;-59
2023/03/12 04:16:50;;;;;;;4.10;2.95;;;;;;;4.89;95.71;100924.25;2073882;28;20340;-59
2023/03/12 04:17:51;;;;;;;4.83;2.80;;;;;;;4.75;96.20;100915.97;2072377;28;20207;-58
2023/03/12 04:18:51;;;;;;;4.63;2.57;;;;;;;4.70;96.57;100907.28;2076204;28;20193;-58
2023/03/12 04:19:52;;;;;;;5.33;2.50;;;;;;;4.83;96.55;100930.50;2077883;28;20217;-59
2023/03/12 04:20:52;;;;;;;3.67;2.70;;;;;;;4.86;96.00;100932.47;2073646;28;20232;-59
2023/03/12 04:21:52;;;;;;;5.07;3.00;;;;;;;4.82;96.19;100926.97;2080103;28;20559;-59
2023/03/12 04:22:53;;;;;;;4.23;3.13;;;;;;;4.88;96.22;100928.16;2080685;28;20182;-59
2023/03/12 04:23:53;;;;;;;4.23;2.90;;;;;;;4.89;95.83;100927.00;2080459;28;20189;-58
2023/03/12 04:24:54;;;;;;;4.53;3.10;;;;;;;4.91;96.12;100921.91;2074371;28;20232;-59
2023/03/12 04:25:55;;;;;;;4.83;2.93;;;;;;;4.91;95.26;100919.16;2077170;28;20586;-59
2023/03/12 04:26:57;;;;;;;4.50;2.90;;;;;;;4.94;95.21;100923.09;2076062;28;20256;-58
2023/03/12 04:27:58;;;;;;;5.65;3.22;;;;;;;4.94;95.79;100915.66;2075172;28;20204;-59
2023/03/12 04:28:59;;;;;;;5.03;2.77;;;;;;;4.91;95.76;100918.34;2080334;28;20194;-59
2023/03/12 04:30:00;;;;;;;4.00;2.80;;;;;;;4.82;95.46;100926.97;2079483;28;20182;-59
2023/03/12 04:31:04;;;;;;;3.80;2.83;;;;;;;4.84;95.55;100921.09;2071990;28;20652;-59
2023/03/12 04:32:05;;;;;;;6.50;3.10;;;;;;;4.83;95.64;100923.03;2072610;28;20233;-58
2023/03/12 04:33:06;;;;;;;6.28;2.95;;;;;;;4.69;95.20;100900.25;2079799;28;20217;-58
2023/03/12 04:34:08;;;;;;;6.77;3.00;;;;;;;4.92;95.89;100931.72;2086893;28;20204;-59
2023/03/12 04:35:08;;;;;;;5.13;2.95;;;;;;;4.83;95.28;100933.25;2083015;28;20222;-59
2023/03/12 04:36:10;;;;;;;5.27;2.97;;;;;;;4.01;95.63;100812.50;2080362;28;20655;-58
2023/03/12 04:37:12;;;;;;;4.72;2.90;;;;;;;4.49;95.13;100886.03;2076313;28;20282;-58
2023/03/12 04:38:13;;;;;;;4.38;3.00;;;;;;;4.94;94.41;100953.31;2074722;28;20187;-59
2023/03/12 04:39:18;;;;;;;5.13;2.90;;;;;;;4.86;95.06;100941.50;2079145;28;20193;-58
2023/03/12 04:40:18;;;;;;;3.67;2.70;;;;;;;4.84;95.14;100946.59;2072947;28;20181;-58
2023/03/12 04:41:19;;;;;;;4.03;2.83;;;;;;;4.84;94.96;100959.53;2080263;28;20189;-58
2023/03/12 04:42:19;;;;;;;4.73;3.20;;;;;;;4.79;94.99;100966.19;2080463;28;20218;-59
2023/03/12 04:43:20;;;;;;;4.07;2.90;;;;;;;4.81;94.49;100957.53;2080347;28;20321;-59
2023/03/12 04:44:20;;;;;;;4.57;3.10;;;;;;;4.37;94.67;100904.78;2074782;28;20238;-59
2023/03/12 04:45:20;;;;;;;3.70;2.70;;;;;;;4.72;95.46;100954.38;2076695;28;20277;-59
2023/03/12 04:46:21;;;;;;;6.53;2.80;;;;;;;4.76;95.62;100966.16;2080309;28;20190;-59
2023/03/12 04:47:21;;;;;;;4.00;3.00;;;;;;;4.43;95.55;100916.97;2079805;28;20201;-59
2023/03/12 04:48:22;;;;;;;4.17;2.80;;;;;;;4.70;95.44;100964.94;2080287;28;20402;-58
2023/03/12 04:49:23;;;;;;;4.95;3.08;;;;;;;4.05;95.63;100859.94;2080492;28;20683;-59
2023/03/12 04:50:24;;;;;;;4.47;2.80;;;;;;;4.70;95.56;100968.50;2072386;28;20577;-59